Time;durP1;ratioP1;P1;durP2;ratioP2;P2;SDS_P1;SDS_P2;PMS_P1;PMS_P2;Temp;Humidity;BMP_temperature;BMP_pressure;BME280_temperature;BME280_humidity;BME280_pressure;Samples;Min_cycle;Max_cycle;Signal;HPM_P1;HPM_P2
2021/06/24 00:01:29;;;;;;;25.10;15.68;;;;;;;19.09;70.61;101312.97;5096774;28;20039;-91
2021/06/24 00:03:54;;;;;;;19.27;13.95;;;;;;;19.17;70.20;101304.28;5112026;28;20023;-91
2021/06/24 00:06:20;;;;;;;18.85;13.73;;;;;;;19.13;70.02;101303.72;5112589;28;20034;-91
2021/06/24 00:08:45;;;;;;;23.52;14.95;;;;;;;19.13;70.01;101302.88;5112352;28;20027;-91
2021/06/24 00:11:10;;;;;;;20.85;14.50;;;;;;;19.10;70.01;101297.84;5112463;28;20024;-91
2021/06/24 00:13:38;;;;;;;20.42;14.43;;;;;;;19.16;70.04;101305.28;5112450;28;20470;-91
2021/06/24 00:16:04;;;;;;;15.50;12.52;;;;;;;19.19;69.26;101297.00;5112391;28;20039;-91
2021/06/24 00:18:30;;;;;;;17.80;13.35;;;;;;;19.21;69.14;101301.22;5103270;28;20034;-91
2021/06/24 00:20:56;;;;;;;19.67;13.70;;;;;;;19.25;69.76;101304.44;5092094;28;20111;-91
2021/06/24 00:23:22;;;;;;;16.23;12.50;;;;;;;19.24;69.41;101302.78;5092070;28;20482;-91
2021/06/24 00:25:47;;;;;;;19.33;13.25;;;;;;;19.24;69.85;101289.47;5091759;28;20121;-91
2021/06/24 00:28:17;;;;;;;16.83;11.77;;;;;;;19.23;70.55;101287.75;5090848;28;20123;-91
2021/06/24 00:30:47;;;;;;;17.75;11.90;;;;;;;19.16;70.92;101287.47;5091961;28;20025;-91
2021/06/24 00:33:13;;;;;;;13.07;9.85;;;;;;;19.19;71.54;101284.56;5091850;28;20075;-92
2021/06/24 00:35:38;;;;;;;15.50;11.05;;;;;;;19.15;70.58;101291.09;5091915;28;20077;-91
2021/06/24 00:38:04;;;;;;;15.57;9.85;;;;;;;19.24;70.76;101278.81;5091850;28;20028;-91
2021/06/24 00:40:33;;;;;;;15.50;11.98;;;;;;;19.21;70.68;101281.72;5090787;28;20068;-91
2021/06/24 00:43:00;;;;;;;15.30;11.35;;;;;;;19.18;70.74;101268.72;5094607;28;20308;-91
2021/06/24 00:45:25;;;;;;;16.48;11.15;;;;;;;19.25;70.89;101277.81;5112251;28;20039;-90
2021/06/24 00:47:51;;;;;;;15.30;11.30;;;;;;;19.34;70.47;101276.97;5111673;28;20031;-91
2021/06/24 00:50:16;;;;;;;16.50;10.93;;;;;;;19.28;70.90;101274.88;5112220;28;20496;-91
2021/06/24 00:52:42;;;;;;;17.27;12.15;;;;;;;19.30;70.64;101266.75;5112242;28;20034;-91
2021/06/24 00:55:08;;;;;;;13.88;10.45;;;;;;;19.35;70.26;101278.69;5112197;28;20034;-91
2021/06/24 00:57:34;;;;;;;16.48;11.15;;;;;;;19.25;70.87;101264.50;5112162;28;20051;-91
2021/06/24 00:59:59;;;;;;;15.82;11.02;;;;;;;19.43;71.23;101277.94;5110006;28;20168;-91
2021/06/24 01:02:25;;;;;;;18.25;10.77;;;;;;;19.37;71.24;101274.06;5095115;28;20513;-91
2021/06/24 01:04:50;;;;;;;19.63;12.27;;;;;;;19.45;70.94;101276.00;5095079;28;20497;-91
2021/06/24 01:07:16;;;;;;;15.70;11.60;;;;;;;19.43;70.97;101272.63;5094093;28;20231;-91
2021/06/24 01:09:41;;;;;;;12.07;10.32;;;;;;;19.38;71.16;101270.38;5095151;28;20020;-91
2021/06/24 01:12:08;;;;;;;17.40;10.77;;;;;;;19.46;70.66;101269.69;5094995;28;20032;-91
2021/06/24 01:14:35;;;;;;;15.02;11.20;;;;;;;19.41;71.65;101272.78;5095442;28;20081;-91
2021/06/24 01:17:00;;;;;;;14.65;10.52;;;;;;;19.39;71.89;101276.53;5109883;28;20073;-90
2021/06/24 01:19:26;;;;;;;16.10;10.82;;;;;;;19.40;72.11;101275.59;5094883;28;20024;-91
2021/06/24 01:21:51;;;;;;;15.82;11.15;;;;;;;19.54;71.56;101275.16;5094598;28;20024;-91
2021/06/24 01:24:17;;;;;;;13.93;9.77;;;;;;;19.58;71.70;101271.22;5094890;28;20024;-91
2021/06/24 01:26:44;;;;;;;14.50;10.68;;;;;;;19.54;71.36;101272.47;5094909;28;20034;-91
2021/06/24 01:29:10;;;;;;;14.68;9.13;;;;;;;19.57;71.51;101269.56;5094744;28;20051;-91
2021/06/24 01:31:36;;;;;;;12.93;10.00;;;;;;;19.60;71.43;101265.75;5109741;28;20449;-91
2021/06/24 01:34:05;;;;;;;12.32;10.35;;;;;;;19.56;71.56;101272.34;5115136;28;20047;-91
2021/06/24 01:36:31;;;;;;;15.07;10.32;;;;;;;19.51;72.01;101266.59;5114939;28;20030;-91
2021/06/24 01:38:56;;;;;;;11.10;9.55;;;;;;;19.48;72.32;101267.72;5113799;28;20023;-91
2021/06/24 01:41:22;;;;;;;12.43;9.23;;;;;;;19.50;72.02;101268.44;5114836;28;20465;-91
2021/06/24 01:43:47;;;;;;;13.40;10.05;;;;;;;19.51;72.09;101272.78;5115100;28;20055;-91
2021/06/24 01:46:13;;;;;;;14.30;9.70;;;;;;;19.53;71.55;101257.50;5114511;28;20468;-91
2021/06/24 01:48:39;;;;;;;11.93;9.20;;;;;;;19.52;71.73;101265.63;5114850;28;20028;-90
2021/06/24 01:51:05;;;;;;;12.50;10.05;;;;;;;19.47;72.31;101265.19;5114688;28;20412;-91
2021/06/24 01:53:32;;;;;;;14.80;10.68;;;;;;;19.45;72.46;101269.81;5114816;28;20026;-90
2021/06/24 01:55:57;;;;;;;11.35;8.95;;;;;;;19.45;72.21;101265.34;5114615;28;20039;-91
2021/06/24 01:58:24;;;;;;;11.80;9.90;;;;;;;19.37;72.58;101260.75;5114247;28;20024;-90
2021/06/24 02:00:56;;;;;;;14.20;10.02;;;;;;;19.38;72.87;101253.59;5099596;28;20032;-91
2021/06/24 02:03:23;;;;;;;12.48;10.00;;;;;;;19.34;72.57;101250.34;5094030;28;20023;-91
2021/06/24 02:05:51;;;;;;;15.77;10.43;;;;;;;19.36;72.77;101256.38;5093869;28;20035;-90
2021/06/24 02:08:19;;;;;;;15.25;10.57;;;;;;;19.33;72.91;101261.13;5093788;28;20032;-90
2021/06/24 02:10:45;;;;;;;12.18;9.52;;;;;;;19.35;72.60;101261.84;5092076;28;20489;-90
2021/06/24 02:13:11;;;;;;;15.00;9.57;;;;;;;19.39;71.94;101266.75;5093644;28;20057;-90
2021/06/24 02:15:37;;;;;;;12.70;10.30;;;;;;;19.43;72.00;101261.97;5106828;28;20031;-90
2021/06/24 02:18:03;;;;;;;12.98;10.30;;;;;;;19.42;71.83;101258.47;5112722;28;20048;-90
2021/06/24 02:20:29;;;;;;;13.15;10.05;;;;;;;19.41;72.46;101248.81;5114342;28;20197;-90
2021/06/24 02:22:54;;;;;;;12.07;9.90;;;;;;;19.45;72.17;101253.84;5113924;28;20560;-90
2021/06/24 02:25:20;;;;;;;14.57;10.13;;;;;;;19.44;71.86;101253.00;5113824;28;20110;-90
2021/06/24 02:27:45;;;;;;;13.65;9.75;;;;;;;19.40;72.23;101247.13;5112495;28;20016;-90
2021/06/24 02:30:13;;;;;;;10.63;9.15;;;;;;;19.44;71.83;101244.19;5113067;28;20038;-90
2021/06/24 02:32:39;;;;;;;9.70;8.70;;;;;;;19.44;72.12;101246.84;5097426;28;20030;-90
2021/06/24 02:35:07;;;;;;;14.40;9.57;;;;;;;19.45;71.87;101241.41;5093427;28;20024;-90
2021/06/24 02:37:33;;;;;;;9.80;8.30;;;;;;;19.39;71.71;101234.81;5092050;28;20028;-90
2021/06/24 02:39:59;;;;;;;14.25;9.07;;;;;;;19.44;72.04;101239.69;5091894;28;20028;-90
2021/06/24 02:42:24;;;;;;;10.77;8.70;;;;;;;19.48;71.68;101235.75;5093050;28;20046;-90
2021/06/24 02:44:50;;;;;;;14.35;8.70;;;;;;;19.50;71.52;101241.78;5093453;28;20059;-90
2021/06/24 02:47:16;;;;;;;12.32;8.77;;;;;;;19.45;71.93;101244.06;5107624;28;20372;-89
2021/06/24 02:49:41;;;;;;;10.00;8.27;;;;;;;19.46;71.57;101244.88;5113522;28;20434;-90
2021/06/24 02:52:07;;;;;;;11.07;7.65;;;;;;;19.39;70.75;101237.47;5113557;28;20073;-91
2021/06/24 02:54:32;;;;;;;9.68;8.10;;;;;;;19.42;70.69;101241.66;5114202;28;20031;-90
2021/06/24 02:56:58;;;;;;;10.13;7.57;;;;;;;19.44;70.61;101241.53;5114167;28;20022;-90
2021/06/24 02:59:24;;;;;;;8.43;7.63;;;;;;;19.40;70.95;101230.31;5108527;28;20032;-90
2021/06/24 03:01:49;;;;;;;10.85;7.43;;;;;;;19.38;71.37;101243.75;5094385;28;20031;-90
2021/06/24 03:04:20;;;;;;;9.65;8.10;;;;;;;19.39;71.36;101232.13;5093734;28;20020;-90
2021/06/24 03:06:45;;;;;;;10.13;8.15;;;;;;;19.39;71.08;101233.94;5093082;28;20024;-90
2021/06/24 03:09:11;;;;;;;12.05;8.95;;;;;;;19.38;71.25;101233.09;5093161;28;20462;-90
2021/06/24 03:11:36;;;;;;;8.20;7.40;;;;;;;19.13;73.05;101226.53;5092809;28;20034;-90
2021/06/24 03:14:02;;;;;;;11.10;8.07;;;;;;;19.25;72.04;101229.06;5092880;28;20020;-91
2021/06/24 03:16:27;;;;;;;9.60;7.55;;;;;;;19.34;71.43;101242.38;5094191;28;20050;-90
2021/06/24 03:18:52;;;;;;;9.07;7.72;;;;;;;19.30;71.63;101234.81;5092907;28;20103;-90
2021/06/24 03:21:19;;;;;;;10.73;7.68;;;;;;;19.29;71.18;101233.94;5092687;28;20024;-90
2021/06/24 03:23:44;;;;;;;11.88;7.45;;;;;;;19.32;70.68;101244.31;5091052;28;20019;-90
2021/06/24 03:26:10;;;;;;;8.40;6.78;;;;;;;19.32;70.67;101244.31;5112666;28;20127;-90
2021/06/24 03:28:35;;;;;;;10.38;7.22;;;;;;;19.35;70.83;101244.06;5113011;28;20031;-90
2021/06/24 03:31:00;;;;;;;11.30;7.13;;;;;;;19.35;70.93;101246.72;5113026;28;20027;-90
2021/06/24 03:33:26;;;;;;;7.65;6.25;;;;;;;19.34;71.53;101246.84;5113204;28;20077;-90
2021/06/24 03:35:52;;;;;;;10.45;7.20;;;;;;;19.33;71.08;101256.69;5111447;28;20032;-90
2021/06/24 03:38:18;;;;;;;10.02;6.55;;;;;;;19.32;71.06;101254.16;5113010;28;20028;-90
2021/06/24 03:40:44;;;;;;;10.68;6.80;;;;;;;19.32;71.29;101248.81;5112095;28;20043;-91
2021/06/24 03:43:09;;;;;;;7.35;6.63;;;;;;;18.80;72.59;101241.09;5112505;28;20028;-90
2021/06/24 03:45:37;;;;;;;6.75;6.15;;;;;;;18.70;74.31;101251.69;5112688;28;20028;-91
2021/06/24 03:48:02;;;;;;;7.28;6.22;;;;;;;18.64;75.13;101252.19;5112728;28;20031;-91
2021/06/24 03:50:28;;;;;;;8.40;6.78;;;;;;;19.15;72.61;101250.34;5112788;28;20032;-91
2021/06/24 03:52:53;;;;;;;7.80;6.78;;;;;;;18.73;74.93;101250.56;5112617;28;20020;-90
2021/06/24 03:55:35;;;;;;;8.88;7.47;;;;;;;18.69;75.49;101257.13;5095483;28;20028;-90
2021/06/24 03:58:00;;;;;;;9.30;7.07;;;;;;;18.66;75.20;101247.59;5111119;28;20034;-90
2021/06/24 04:00:25;;;;;;;8.55;6.68;;;;;;;19.11;73.06;101247.13;5112378;28;20023;-90
2021/06/24 04:02:51;;;;;;;7.18;6.47;;;;;;;18.82;75.14;101255.94;5112326;28;20059;-90
2021/06/24 04:05:16;;;;;;;9.32;6.70;;;;;;;18.65;75.49;101253.88;5112541;28;20127;-91
2021/06/24 04:07:42;;;;;;;9.35;7.15;;;;;;;18.61;75.56;101255.97;5111175;28;20024;-90
2021/06/24 04:10:07;;;;;;;8.93;7.38;;;;;;;18.61;75.73;101249.81;5111953;28;20487;-90
2021/06/24 04:12:33;;;;;;;8.02;6.45;;;;;;;18.58;75.88;101250.09;5112314;28;20049;-90
2021/06/24 04:14:58;;;;;;;6.88;6.07;;;;;;;18.59;75.84;101254.44;5112467;28;20077;-90
2021/06/24 04:17:24;;;;;;;9.15;7.18;;;;;;;18.60;76.08;101254.31;5112452;28;20492;-90
2021/06/24 04:19:49;;;;;;;7.60;6.82;;;;;;;18.64;76.19;101260.16;5112395;28;20023;-91
2021/06/24 04:22:14;;;;;;;7.15;6.45;;;;;;;18.65;75.52;101256.56;5112135;28;20457;-90
2021/06/24 04:24:40;;;;;;;9.85;6.80;;;;;;;18.66;76.46;101258.25;5099026;28;20036;-90
2021/06/24 04:27:06;;;;;;;9.65;7.30;;;;;;;18.61;76.53;101255.97;5090441;28;20016;-90
2021/06/24 04:29:31;;;;;;;7.70;6.55;;;;;;;18.69;76.61;101259.78;5091628;28;20039;-91
2021/06/24 04:31:58;;;;;;;7.63;6.93;;;;;;;18.67;76.11;101259.09;5091819;28;20024;-90
2021/06/24 04:34:24;;;;;;;8.25;7.28;;;;;;;18.65;76.12;101251.22;5092844;28;20032;-90
2021/06/24 04:36:49;;;;;;;9.80;7.05;;;;;;;19.07;74.80;101255.53;5095401;28;20111;-90
2021/06/24 04:39:15;;;;;;;7.18;6.47;;;;;;;19.26;72.92;101246.72;5105543;28;20028;-90
2021/06/24 04:41:40;;;;;;;7.97;6.82;;;;;;;19.31;72.81;101248.00;5115854;28;20099;-90
2021/06/24 04:44:06;;;;;;;7.30;6.60;;;;;;;19.34;72.57;101245.03;5116040;28;20123;-90
2021/06/24 04:46:32;;;;;;;7.13;6.10;;;;;;;19.34;72.90;101242.38;5114924;28;20028;-90
2021/06/24 04:48:57;;;;;;;9.73;6.60;;;;;;;19.41;72.28;101247.94;5095289;28;20355;-91
2021/06/24 04:51:22;;;;;;;6.85;5.80;;;;;;;19.41;72.15;101251.47;5094048;28;20020;-90
2021/06/24 04:53:48;;;;;;;8.00;6.53;;;;;;;19.46;71.38;101239.56;5095415;28;20101;-90
2021/06/24 04:56:13;;;;;;;6.22;5.63;;;;;;;19.50;71.75;101244.44;5095434;28;20490;-91
2021/06/24 04:58:38;;;;;;;6.40;5.75;;;;;;;19.50;71.34;101240.97;5095358;28;20483;-90
2021/06/24 05:01:04;;;;;;;7.07;5.82;;;;;;;19.57;70.96;101242.91;5095350;28;20028;-91
2021/06/24 05:03:29;;;;;;;6.68;5.97;;;;;;;19.67;70.82;101250.88;5110221;28;20099;-90
2021/06/24 05:05:54;;;;;;;8.63;5.85;;;;;;;19.73;70.89;101252.19;5108620;28;20035;-90
2021/06/24 05:08:22;;;;;;;6.68;5.45;;;;;;;19.69;70.37;101240.94;5115588;28;20516;-90
2021/06/24 05:10:48;;;;;;;8.57;6.10;;;;;;;19.81;70.67;101242.47;5114163;28;20480;-90
2021/06/24 05:13:14;;;;;;;7.80;6.30;;;;;;;19.88;70.27;101250.72;5115226;28;20039;-90
2021/06/24 05:15:44;;;;;;;6.13;5.53;;;;;;;19.90;70.86;101242.59;5115136;28;20024;-90
2021/06/24 05:18:11;;;;;;;5.95;4.88;;;;;;;19.99;70.30;101249.72;5115423;28;20472;-90
2021/06/24 05:20:38;;;;;;;6.10;5.50;;;;;;;19.94;70.59;101246.63;5114886;28;20110;-90
2021/06/24 05:23:04;;;;;;;6.45;5.35;;;;;;;20.00;69.96;101248.72;5113645;28;20027;-90
2021/06/24 05:25:29;;;;;;;7.25;4.82;;;;;;;20.06;69.53;101250.78;5115000;27;20469;-90
2021/06/24 05:27:54;;;;;;;8.38;6.68;;;;;;;19.55;71.26;101247.53;5115102;28;20522;-90
2021/06/24 05:30:20;;;;;;;7.47;6.32;;;;;;;19.39;73.43;101249.91;5114984;28;20023;-90
2021/06/24 05:32:46;;;;;;;8.98;6.80;;;;;;;19.38;73.23;101254.41;5102159;28;20032;-90
2021/06/24 05:35:11;;;;;;;11.00;7.93;;;;;;;19.26;73.71;101249.38;5094366;28;20028;-90
2021/06/24 05:37:37;;;;;;;9.20;8.15;;;;;;;19.40;73.41;101246.28;5094686;28;20032;-90
2021/06/24 05:40:03;;;;;;;10.55;8.40;;;;;;;19.49;73.59;101252.56;5094539;28;20024;-90
2021/06/24 05:42:29;;;;;;;11.73;8.55;;;;;;;19.49;73.08;101240.13;5094316;28;20028;-90
2021/06/24 05:44:54;;;;;;;12.35;9.75;;;;;;;19.46;73.22;101234.22;5094306;28;20435;-90
2021/06/24 05:47:20;;;;;;;8.13;7.22;;;;;;;19.64;71.82;101242.34;5102875;28;20052;-89
2021/06/24 05:49:45;;;;;;;8.80;7.63;;;;;;;19.83;71.67;101242.34;5099695;28;20028;-91
2021/06/24 05:52:11;;;;;;;10.00;7.30;;;;;;;19.97;70.88;101241.84;5094139;28;20034;-90
2021/06/24 05:54:36;;;;;;;7.68;6.50;;;;;;;19.98;69.81;101234.69;5094142;28;20099;-90
2021/06/24 05:57:02;;;;;;;7.78;6.95;;;;;;;19.96;70.54;101242.88;5094437;28;20024;-88
2021/06/24 05:59:27;;;;;;;9.85;7.50;;;;;;;20.07;70.17;101244.50;5093091;28;20385;-88
2021/06/24 06:01:53;;;;;;;8.88;6.43;;;;;;;20.14;69.44;101236.75;5100072;28;20019;-87
2021/06/24 06:04:19;;;;;;;8.10;6.18;;;;;;;20.25;68.50;101239.22;5108834;28;20119;-87
2021/06/24 06:06:44;;;;;;;6.38;5.45;;;;;;;20.36;68.32;101243.56;5094975;28;20402;-89
2021/06/24 06:09:10;;;;;;;8.77;5.43;;;;;;;20.42;67.11;101242.94;5096846;28;20023;-88
2021/06/24 06:11:36;;;;;;;5.57;5.07;;;;;;;20.56;66.74;101244.28;5113119;28;20534;-88
2021/06/24 06:14:02;;;;;;;5.18;4.63;;;;;;;20.67;65.62;101251.25;5113813;28;20478;-88
2021/06/24 06:16:27;;;;;;;5.45;4.57;;;;;;;20.85;65.43;101253.97;5099943;28;20122;-89
2021/06/24 06:18:53;;;;;;;5.75;5.03;;;;;;;20.75;65.13;101259.34;5101279;28;20149;-90
2021/06/24 06:21:20;;;;;;;6.55;4.75;;;;;;;20.80;65.31;101252.59;5107050;28;20028;-88
2021/06/24 06:23:45;;;;;;;5.63;4.72;;;;;;;20.82;64.85;101251.59;5108268;28;20015;-88
2021/06/24 06:26:11;;;;;;;5.72;4.57;;;;;;;20.91;65.38;101256.88;5113939;28;20564;-87
2021/06/24 06:28:36;;;;;;;4.55;4.15;;;;;;;21.10;64.73;101263.06;5098135;28;20374;-87
2021/06/24 06:31:01;;;;;;;4.30;3.90;;;;;;;21.13;64.01;101252.06;5110349;28;20439;-88
2021/06/24 06:33:27;;;;;;;4.93;4.30;;;;;;;21.21;64.05;101265.50;5101557;27;20031;-89
2021/06/24 06:35:53;;;;;;;5.28;3.92;;;;;;;20.99;63.46;101256.97;5117806;28;20012;-88
2021/06/24 06:38:19;;;;;;;6.93;4.55;;;;;;;21.19;63.63;101264.81;5119101;28;20125;-87
2021/06/24 06:40:45;;;;;;;6.40;4.30;;;;;;;21.20;63.71;101258.47;5126604;28;20012;-88
2021/06/24 06:43:12;;;;;;;4.45;4.05;;;;;;;21.33;62.66;101258.09;5135441;28;20026;-86
2021/06/24 06:45:38;;;;;;;4.25;3.10;;;;;;;21.47;62.14;101248.72;5120490;28;20036;-85
2021/06/24 06:48:04;;;;;;;6.88;4.35;;;;;;;21.41;62.28;101249.31;5129983;28;20041;-86
2021/06/24 06:50:31;;;;;;;4.95;3.88;;;;;;;21.70;61.64;101249.06;5129718;28;20469;-88
2021/06/24 06:52:56;;;;;;;4.05;3.60;;;;;;;21.98;60.47;101247.06;5121371;28;20027;-85
2021/06/24 06:55:28;;;;;;;4.80;4.00;;;;;;;21.95;59.84;101252.72;5134801;28;20061;-86
2021/06/24 06:57:54;;;;;;;4.50;3.35;;;;;;;22.01;60.03;101251.25;5125643;28;20023;-85
2021/06/24 07:00:20;;;;;;;10.43;4.13;;;;;;;22.14;60.24;101251.66;5134943;28;20053;-86
2021/06/24 07:02:45;;;;;;;63.83;11.27;;;;;;;22.15;60.09;101248.81;5134867;28;20012;-86
2021/06/24 07:05:11;;;;;;;12.48;5.00;;;;;;;22.17;59.60;101252.16;5135564;28;20028;-86
2021/06/24 07:07:36;;;;;;;4.75;4.30;;;;;;;22.22;59.62;101254.38;5134101;28;20032;-86
2021/06/24 07:10:03;;;;;;;4.43;3.97;;;;;;;22.05;59.63;101261.47;5128673;28;20107;-86
2021/06/24 07:12:28;;;;;;;3.70;3.40;;;;;;;22.29;59.46;101262.63;5123667;28;20044;-86
2021/06/24 07:14:54;;;;;;;5.07;4.57;;;;;;;22.41;58.87;101258.66;5130979;28;20059;-86
2021/06/24 07:17:19;;;;;;;6.05;3.47;;;;;;;22.32;58.54;101255.13;5134683;28;20039;-86
2021/06/24 07:19:44;;;;;;;4.53;3.72;;;;;;;22.36;58.96;101259.16;5134528;28;20019;-85
2021/06/24 07:22:10;;;;;;;6.20;4.63;;;;;;;22.46;58.56;101260.88;5135489;28;20040;-85
2021/06/24 07:24:35;;;;;;;4.03;3.13;;;;;;;22.67;57.78;101263.09;5128414;28;20031;-86
2021/06/24 07:27:01;;;;;;;3.63;3.25;;;;;;;22.85;57.96;101255.81;5113144;28;20023;-86
2021/06/24 07:29:27;;;;;;;7.45;3.75;;;;;;;23.04;57.34;101253.84;5114311;28;20039;-86
2021/06/24 07:31:53;;;;;;;4.35;3.80;;;;;;;22.86;56.17;101249.44;5115625;28;20084;-85
2021/06/24 07:34:18;;;;;;;4.20;3.80;;;;;;;22.96;56.07;101251.97;5114351;28;20034;-86
2021/06/24 07:36:45;;;;;;;4.30;3.90;;;;;;;23.21;55.53;101250.19;5110745;28;20392;-86
2021/06/24 07:39:11;;;;;;;17.92;4.07;;;;;;;23.41;55.01;101249.88;5106622;28;20032;-86
2021/06/24 07:41:37;;;;;;;7.93;4.75;;;;;;;23.83;53.37;101236.25;5111539;28;20043;-86
2021/06/24 07:44:02;;;;;;;4.10;3.72;;;;;;;24.19;52.94;101233.16;5113964;28;20040;-86
2021/06/24 07:46:28;;;;;;;5.25;3.95;;;;;;;24.64;51.47;101241.50;5097912;28;20067;-86
2021/06/24 07:48:53;;;;;;;4.78;3.95;;;;;;;24.52;51.06;101233.03;5093871;28;20076;-86
2021/06/24 07:51:18;;;;;;;4.38;3.97;;;;;;;24.79;50.55;101236.25;5113417;28;20019;-84
2021/06/24 07:53:44;;;;;;;5.28;4.30;;;;;;;24.51;49.73;101228.69;5114169;28;20024;-87
2021/06/24 07:56:10;;;;;;;4.70;4.07;;;;;;;25.06;49.59;101224.09;5113801;28;20376;-86
2021/06/24 07:58:36;;;;;;;11.82;5.10;;;;;;;25.26;48.41;101233.41;5114054;28;20035;-85
2021/06/24 08:01:03;;;;;;;5.32;4.47;;;;;;;25.22;49.25;101234.78;5102992;28;20020;-86
2021/06/24 08:03:28;;;;;;;6.57;5.28;;;;;;;25.50;47.67;101240.41;5093175;28;20389;-86
2021/06/24 08:05:54;;;;;;;7.78;4.82;;;;;;;26.22;46.25;101246.22;5100029;28;20119;-86
2021/06/24 08:08:19;;;;;;;6.82;5.50;;;;;;;26.85;45.32;101246.59;5112072;28;20027;-86
2021/06/24 08:10:45;;;;;;;4.28;3.88;;;;;;;27.85;43.54;101239.38;5117460;28;20027;-86
2021/06/24 08:13:10;;;;;;;5.65;4.40;;;;;;;27.67;42.31;101235.31;5117537;28;20051;-86
2021/06/24 08:15:35;;;;;;;5.47;4.43;;;;;;;28.21;41.74;101235.66;5117437;28;20118;-86
2021/06/24 08:18:01;;;;;;;5.93;4.50;;;;;;;28.17;41.14;101229.00;5117383;28;20042;-86
2021/06/24 08:20:26;;;;;;;5.68;4.63;;;;;;;27.91;41.84;101230.53;5117211;28;20035;-86
2021/06/24 08:22:53;;;;;;;5.63;4.93;;;;;;;27.73;42.68;101235.56;5117571;28;20072;-86
2021/06/24 08:25:19;;;;;;;5.90;5.07;;;;;;;27.56;43.24;101230.47;5105630;28;20035;-86
2021/06/24 08:27:44;;;;;;;10.77;4.50;;;;;;;27.41;42.82;101235.09;5115700;28;20470;-86
2021/06/24 08:30:10;;;;;;;7.15;5.35;;;;;;;27.50;43.97;101237.47;5117087;28;20024;-86
2021/06/24 08:32:37;;;;;;;9.73;5.38;;;;;;;27.65;42.89;101236.56;5117050;28;20028;-86
2021/06/24 08:35:04;;;;;;;8.13;5.70;;;;;;;27.15;43.54;101233.81;5116878;28;20030;-86
2021/06/24 08:37:30;;;;;;;8.63;5.20;;;;;;;28.05;43.37;101221.44;5115896;28;20204;-86
2021/06/24 08:39:55;;;;;;;9.57;5.35;;;;;;;28.43;41.90;101222.84;5114759;28;20545;-86
2021/06/24 08:42:20;;;;;;;58.95;10.82;;;;;;;28.56;42.43;101222.13;5105778;28;20034;-86
2021/06/24 08:44:46;;;;;;;8.93;5.97;;;;;;;28.61;42.33;101222.31;5112197;28;20494;-86
2021/06/24 08:47:15;;;;;;;8.00;6.00;;;;;;;28.76;42.08;101222.16;5115210;28;20031;-86
2021/06/24 08:49:41;;;;;;;7.97;5.70;;;;;;;28.63;40.88;101220.25;5114440;28;20030;-86
2021/06/24 08:52:09;;;;;;;6.65;5.88;;;;;;;29.19;40.86;101221.84;5114793;28;20115;-86
2021/06/24 08:54:34;;;;;;;8.27;6.80;;;;;;;29.15;42.55;101216.00;5115424;28;20023;-86
2021/06/24 08:57:00;;;;;;;13.80;7.10;;;;;;;29.69;40.47;101218.66;5106542;28;20039;-86
2021/06/24 08:59:25;;;;;;;10.73;6.53;;;;;;;29.69;39.29;101210.53;5116111;28;20460;-86
2021/06/24 09:01:53;;;;;;;11.60;6.78;;;;;;;30.15;40.76;101210.41;5116138;28;20068;-86
2021/06/24 09:04:27;;;;;;;7.40;6.55;;;;;;;29.56;40.86;101220.34;5098532;28;20030;-86
2021/06/24 09:06:54;;;;;;;8.82;7.20;;;;;;;29.32;39.82;101212.88;5095168;28;20478;-86
2021/06/24 09:09:27;;;;;;;7.63;6.28;;;;;;;29.27;41.02;101219.75;5095308;28;20036;-86
2021/06/24 09:12:04;;;;;;;8.70;7.82;;;;;;;28.17;42.02;101221.72;5095325;28;20024;-86
2021/06/24 09:14:43;;;;;;;7.75;6.90;;;;;;;27.67;43.09;101224.53;5096157;28;20537;-86
2021/06/24 09:17:11;;;;;;;14.77;7.10;;;;;;;26.94;44.43;101228.47;5096037;28;20031;-86
2021/06/24 09:19:42;;;;;;;9.85;6.85;;;;;;;26.81;45.15;101221.06;5095066;28;20039;-86
2021/06/24 09:22:12;;;;;;;7.88;6.78;;;;;;;26.37;45.58;101213.91;5093667;28;20024;-85
2021/06/24 09:24:47;;;;;;;9.50;7.57;;;;;;;25.77;47.54;101224.69;5093557;28;20031;-85
2021/06/24 09:27:23;;;;;;;8.70;7.60;;;;;;;25.47;48.77;101224.63;5093769;28;20514;-85
2021/06/24 09:29:50;;;;;;;9.88;8.18;;;;;;;25.22;49.17;101221.34;5094851;28;20367;-85
2021/06/24 09:32:33;;;;;;;12.13;8.88;;;;;;;24.72;50.65;101228.03;5097290;28;20120;-85
2021/06/24 09:35:02;;;;;;;9.00;8.10;;;;;;;24.39;52.23;101225.50;5094264;28;20035;-85
2021/06/24 09:37:28;;;;;;;9.25;7.95;;;;;;;24.52;52.89;101222.28;5094638;28;20492;-84
2021/06/24 09:39:56;;;;;;;10.48;8.20;;;;;;;24.90;51.22;101217.88;5094557;28;20099;-84
2021/06/24 09:42:23;;;;;;;7.93;6.90;;;;;;;25.45;49.65;101215.91;5099293;28;20023;-84
2021/06/24 09:44:49;;;;;;;7.05;6.00;;;;;;;26.08;47.52;101212.94;5114181;28;20107;-85
2021/06/24 09:47:17;;;;;;;7.50;6.22;;;;;;;26.31;45.89;101212.81;5098580;28;20103;-85
2021/06/24 09:49:55;;;;;;;7.40;6.20;;;;;;;26.44;45.52;101215.69;5114552;28;20419;-85
2021/06/24 09:52:21;;;;;;;7.65;6.35;;;;;;;26.20;45.65;101213.28;5114770;28;20096;-85
2021/06/24 09:54:50;;;;;;;7.05;5.55;;;;;;;25.87;45.82;101217.19;5115318;28;20477;-85
2021/06/24 09:57:23;;;;;;;9.23;5.95;;;;;;;25.56;47.20;101216.50;5095696;28;20367;-85
2021/06/24 09:59:53;;;;;;;7.00;6.30;;;;;;;25.61;46.54;101214.09;5094250;28;20027;-85
2021/06/24 10:02:19;;;;;;;7.47;6.25;;;;;;;25.81;46.37;101220.63;5110472;28;20048;-85
2021/06/24 10:04:46;;;;;;;18.17;7.22;;;;;;;25.80;46.69;101216.25;5094504;28;20034;-85
2021/06/24 10:07:17;;;;;;;24.75;7.47;;;;;;;26.03;46.42;101221.56;5111485;28;20382;-85
2021/06/24 10:09:45;;;;;;;9.73;5.70;;;;;;;25.95;44.68;101213.59;5114286;28;20027;-85
2021/06/24 10:12:17;;;;;;;9.52;4.78;;;;;;;26.53;44.67;101213.69;5112942;28;20122;-85
2021/06/24 10:14:43;;;;;;;6.95;4.85;;;;;;;27.33;42.04;101208.28;5113722;28;20062;-85
2021/06/24 10:17:09;;;;;;;13.63;5.65;;;;;;;27.87;39.56;101207.63;5112120;28;20122;-86
2021/06/24 10:19:40;;;;;;;6.28;5.53;;;;;;;28.11;39.28;101213.59;5094179;28;20078;-86
2021/06/24 10:22:05;;;;;;;4.78;4.38;;;;;;;28.74;36.10;101216.13;5094443;28;20383;-86
2021/06/24 10:24:38;;;;;;;5.15;4.60;;;;;;;29.09;36.26;101214.09;5093878;28;20024;-86
2021/06/24 10:27:07;;;;;;;6.60;4.68;;;;;;;29.15;34.39;101207.88;5094254;28;20032;-86
2021/06/24 10:29:45;;;;;;;12.13;5.43;;;;;;;29.70;34.21;101195.94;5094252;28;20036;-86
2021/06/24 10:32:29;;;;;;;6.05;4.65;;;;;;;28.92;34.38;101199.31;5097048;28;20552;-86
2021/06/24 10:34:56;;;;;;;4.75;4.18;;;;;;;28.51;35.08;101194.88;5114454;28;20384;-86
2021/06/24 10:37:23;;;;;;;6.20;3.15;;;;;;;29.11;34.63;101193.09;5114610;28;20088;-86
2021/06/24 10:39:54;;;;;;;5.10;3.33;;;;;;;28.92;33.85;101193.91;5114648;28;20080;-86
2021/06/24 10:42:21;;;;;;;4.00;3.45;;;;;;;29.18;32.79;101187.72;5113870;28;20034;-86
2021/06/24 10:44:48;;;;;;;4.78;3.30;;;;;;;28.78;32.24;101191.19;5113803;28;20062;-86
2021/06/24 10:47:24;;;;;;;2.70;2.45;;;;;;;28.68;33.03;101191.56;5112558;28;20115;-86
2021/06/24 10:49:50;;;;;;;3.95;2.90;;;;;;;29.02;32.77;101188.91;5113800;28;20020;-86
2021/06/24 10:52:26;;;;;;;6.22;2.97;;;;;;;29.52;31.93;101191.19;5114105;28;20031;-86
2021/06/24 10:54:56;;;;;;;5.65;2.80;;;;;;;29.75;32.87;101188.91;5113831;28;20035;-86
2021/06/24 10:57:36;;;;;;;10.18;4.20;;;;;;;30.35;32.81;101186.00;5113376;28;20052;-86
2021/06/24 11:00:35;;;;;;;3.65;3.10;;;;;;;31.42;32.16;101187.94;5113889;28;20024;-86
2021/06/24 11:03:03;;;;;;;5.50;3.72;;;;;;;31.98;31.46;101183.38;5113763;28;20038;-86
2021/06/24 11:05:49;;;;;;;6.70;3.80;;;;;;;31.52;32.38;101182.84;5113318;27;20259;-87
2021/06/24 11:08:17;;;;;;;4.85;3.75;;;;;;;31.63;32.49;101173.13;5113743;28;20031;-87
2021/06/24 11:10:52;;;;;;;3.30;2.70;;;;;;;32.13;31.99;101172.13;5113152;28;20023;-87
2021/06/24 11:13:49;;;;;;;3.25;2.70;;;;;;;32.38;31.27;101161.97;5099281;28;20432;-87
2021/06/24 11:16:17;;;;;;;7.85;3.13;;;;;;;31.68;32.52;101169.75;5088383;28;20044;-87
2021/06/24 11:18:51;;;;;;;5.68;3.20;;;;;;;31.20;32.45;101169.38;5113408;28;20024;-87
2021/06/24 11:21:29;;;;;;;6.40;3.20;;;;;;;30.81;34.23;101171.31;5113486;28;20058;-87